Time,TemperatureF,DewpointF,PressureIn,WindDirection,WindDirectionDegrees,WindSpeedMPH,WindSpeedGustMPH,Humidity,HourlyPrecipIn,Conditions,Clouds,dailyrainin,SolarRadiationWatts/m^2,SoftwareType,DateUTC
2013-02-14 00:00:00,50.5,43.9,30.22,NNW,338,1.0,5.0,78,0.00,,BKN250,0.00,0.00,VWS V14.01,2013-02-14 08:00:00,
2013-02-14 00:10:00,52.2,44.5,30.22,North,0,3.0,9.0,75,0.00,,BKN250,0.00,0.00,VWS V14.01,2013-02-14 08:10:00,
2013-02-14 00:20:00,52.3,43.9,30.22,NW,315,2.0,6.0,73,0.00,,BKN250,0.00,0.00,VWS V14.01,2013-02-14 08:20:00,
2013-02-14 00:30:00,51.2,43.2,30.22,NW,315,2.0,9.0,74,0.00,,BKN250,0.00,0.00,VWS V14.01,2013-02-14 08:30:00,
2013-02-14 00:40:00,51.5,44.2,30.22,NNW,338,2.0,10.0,76,0.00,,BKN250,0.00,0.00,VWS V14.01,2013-02-14 08:40:00,
2013-02-14 00:50:00,50.8,42.8,30.22,North,0,1.0,6.0,74,0.00,,BKN250,0.00,0.00,VWS V14.01,2013-02-14 08:50:00,
2013-02-14 01:00:00,49.7,43.1,30.22,NNW,338,1.0,5.0,78,0.00,,BKN250,0.00,0.00,VWS V14.01,2013-02-14 09:00:00,
2013-02-14 01:10:00,51.0,44.0,30.22,North,0,3.0,11.0,77,0.00,,BKN250,0.00,0.00,VWS V14.01,2013-02-14 09:10:00,
2013-02-14 01:20:00,51.9,44.2,30.22,North,0,3.0,11.0,75,0.00,,BKN250,0.00,0.00,VWS V14.01,2013-02-14 09:20:00,
2013-02-14 01:30:00,51.6,44.0,30.22,NNW,338,1.0,5.0,75,0.00,,BKN250,0.00,0.00,VWS V14.01,2013-02-14 09:30:00,
2013-02-14 01:40:00,51.4,43.8,30.22,NNW,338,2.0,10.0,75,0.00,,BKN250,0.00,0.00,VWS V14.01,2013-02-14 09:40:00,
2013-02-14 01:50:00,51.2,43.6,30.22,NNW,338,3.0,11.0,75,0.00,,BKN250,0.00,0.00,VWS V14.01,2013-02-14 09:50:00,
2013-02-14 02:00:00,51.1,43.5,30.22,NNW,338,3.0,10.0,75,0.00,,BKN250,0.00,0.00,VWS V14.01,2013-02-14 10:00:00,
2013-02-14 02:10:00,50.6,43.3,30.22,WNW,292,3.0,10.0,76,0.00,,BKN250,0.00,0.00,VWS V14.01,2013-02-14 10:10:00,
2013-02-14 02:20:00,50.6,43.7,30.22,NW,315,4.0,12.0,77,0.00,,BKN250,0.00,0.00,VWS V14.01,2013-02-14 10:20:00,
2013-02-14 02:30:00,50.6,43.3,30.22,NW,315,1.0,10.0,76,0.00,,BKN250,0.00,0.00,VWS V14.01,2013-02-14 10:30:00,
2013-02-14 02:40:00,49.8,43.2,30.22,WNW,292,1.0,7.0,78,0.00,,BKN250,0.00,0.00,VWS V14.01,2013-02-14 10:40:00,
2013-02-14 02:50:00,50.5,43.6,30.21,NNW,338,2.0,10.0,77,0.00,,BKN250,0.00,0.00,VWS V14.01,2013-02-14 10:50:00,
2013-02-14 03:00:00,51.0,43.4,30.21,NNW,338,3.0,10.0,75,0.00,,BKN250,0.00,0.00,VWS V14.01,2013-02-14 11:00:00,
2013-02-14 03:10:00,51.1,43.1,30.21,North,0,3.0,13.0,74,0.00,,BKN250,0.00,0.00,VWS V14.01,2013-02-14 11:10:00,
2013-02-14 03:20:00,50.8,43.2,30.21,North,0,3.0,12.0,75,0.00,,BKN250,0.00,0.00,VWS V14.01,2013-02-14 11:20:00,
2013-02-14 03:30:00,50.8,43.2,30.20,North,0,2.0,10.0,75,0.00,,BKN250,0.00,0.00,VWS V14.01,2013-02-14 11:30:00,
2013-02-14 03:40:00,51.0,43.4,30.20,NNE,22,4.0,10.0,75,0.00,,BKN250,0.00,0.00,VWS V14.01,2013-02-14 11:40:00,
2013-02-14 03:50:00,50.9,43.3,30.20,North,0,3.0,13.0,75,0.00,,BKN250,0.00,0.00,VWS V14.01,2013-02-14 11:50:00,
2013-02-14 04:00:00,50.7,43.1,30.21,North,0,3.0,10.0,75,0.00,,BKN250,0.00,0.00,VWS V14.01,2013-02-14 12:00:00,
2013-02-14 04:10:00,50.3,42.7,30.20,WNW,292,1.0,9.0,75,0.00,,BKN250,0.00,0.00,VWS V14.01,2013-02-14 12:10:00,
2013-02-14 04:20:00,50.3,42.7,30.20,NNW,338,3.0,7.0,75,0.00,,BKN250,0.00,0.00,VWS V14.01,2013-02-14 12:20:00,
2013-02-14 04:30:00,49.7,42.5,30.20,WSW,248,1.0,4.0,76,0.00,,BKN250,0.00,0.00,VWS V14.01,2013-02-14 12:30:00,
2013-02-14 04:40:00,49.0,42.1,30.20,NW,315,0.0,2.0,77,0.00,,BKN250,0.00,0.00,VWS V14.01,2013-02-14 12:40:00,
2013-02-14 04:50:00,48.1,41.9,30.21,NW,315,0.0,3.0,79,0.00,,BKN250,0.00,0.00,VWS V14.01,2013-02-14 12:50:00,
2013-02-14 05:00:00,48.7,42.5,30.21,NW,315,4.0,9.0,79,0.00,,BKN250,0.00,0.00,VWS V14.01,2013-02-14 13:00:00,
2013-02-14 05:10:00,49.5,42.6,30.21,NNE,22,3.0,12.0,77,0.00,,BKN250,0.00,0.00,VWS V14.01,2013-02-14 13:10:00,
2013-02-14 05:20:00,49.8,42.5,30.21,North,0,6.0,13.0,76,0.00,,BKN250,0.00,0.00,VWS V14.01,2013-02-14 13:20:00,
2013-02-14 05:30:00,49.5,42.3,30.21,North,0,5.0,13.0,76,0.00,,BKN250,0.00,0.00,VWS V14.01,2013-02-14 13:30:00,
2013-02-14 05:40:00,49.7,42.5,30.21,North,0,3.0,13.0,76,0.00,,BKN250,0.00,0.00,VWS V14.01,2013-02-14 13:40:00,
2013-02-14 05:50:00,49.8,42.2,30.22,NNW,338,3.0,10.0,75,0.00,,BKN250,0.00,0.00,VWS V14.01,2013-02-14 13:50:00,
2013-02-14 06:00:00,49.3,42.1,30.22,NNW,338,5.0,14.0,76,0.00,,BKN250,0.00,0.00,VWS V14.01,2013-02-14 14:00:00,
2013-02-14 06:10:00,49.8,42.2,30.21,North,0,7.0,19.0,75,0.00,,BKN250,0.00,0.00,VWS V14.01,2013-02-14 14:10:00,
2013-02-14 06:20:00,49.6,42.0,30.22,North,0,5.0,14.0,75,0.00,,BKN250,0.00,0.00,VWS V14.01,2013-02-14 14:20:00,
2013-02-14 06:30:00,48.9,41.7,30.22,North,0,5.0,19.0,76,0.00,,BKN250,0.00,0.00,VWS V14.01,2013-02-14 14:30:00,
2013-02-14 06:40:00,48.7,41.8,30.22,NNW,338,6.0,13.0,77,0.00,,BKN250,0.00,0.00,VWS V14.01,2013-02-14 14:40:00,
2013-02-14 06:50:00,48.3,41.4,30.22,NW,315,4.0,17.0,77,0.00,,BKN250,0.00,0.00,VWS V14.01,2013-02-14 14:50:00,
2013-02-14 07:00:00,48.2,41.3,30.22,NNW,338,4.0,14.0,77,0.00,,BKN250,0.00,0.00,VWS V14.01,2013-02-14 15:00:00,
2013-02-14 07:10:00,48.5,41.3,30.22,North,0,4.0,13.0,76,0.00,,BKN250,0.00,3.00,VWS V14.01,2013-02-14 15:10:00,
2013-02-14 07:20:00,48.6,41.0,30.22,North,0,5.0,19.0,75,0.00,,BKN250,0.00,9.00,VWS V14.01,2013-02-14 15:20:00,
2013-02-14 07:30:00,48.9,41.3,30.22,North,0,6.0,18.0,75,0.00,,BKN250,0.00,12.00,VWS V14.01,2013-02-14 15:30:00,
2013-02-14 07:40:00,49.0,41.1,30.23,North,0,6.0,14.0,74,0.00,,BKN250,0.00,16.00,VWS V14.01,2013-02-14 15:40:00,
2013-02-14 07:50:00,49.0,41.1,30.23,North,0,7.0,16.0,74,0.00,,BKN250,0.00,19.00,VWS V14.01,2013-02-14 15:50:00,
2013-02-14 08:00:00,48.9,41.0,30.23,North,0,7.0,15.0,74,0.00,,BKN250,0.00,22.00,VWS V14.01,2013-02-14 16:00:00,
2013-02-14 08:10:00,48.9,41.0,30.24,North,0,7.0,21.0,74,0.00,,BKN250,0.00,50.00,VWS V14.01,2013-02-14 16:10:00,
2013-02-14 08:20:00,49.2,41.3,30.24,North,0,7.0,16.0,74,0.00,,BKN250,0.00,185.00,VWS V14.01,2013-02-14 16:20:00,
2013-02-14 08:30:00,49.9,41.6,30.24,North,0,8.0,16.0,73,0.00,,BKN250,0.00,214.00,VWS V14.01,2013-02-14 16:30:00,
2013-02-14 08:40:00,50.8,41.4,30.24,NNE,22,6.0,15.0,70,0.00,,BKN250,0.00,244.00,VWS V14.01,2013-02-14 16:40:00,
2013-02-14 08:50:00,51.8,41.6,30.24,North,0,7.0,16.0,68,0.00,,BKN250,0.00,275.00,VWS V14.01,2013-02-14 16:50:00,
2013-02-14 09:00:00,53.0,42.0,30.24,North,0,5.0,15.0,66,0.00,,BKN250,0.00,304.00,VWS V14.01,2013-02-14 17:00:00,
2013-02-14 09:10:00,53.5,42.0,30.24,NW,315,3.0,11.0,65,0.00,,BKN250,0.00,333.00,VWS V14.01,2013-02-14 17:10:00,
2013-02-14 09:20:00,54.1,42.2,30.23,North,0,5.0,12.0,64,0.00,,BKN250,0.00,362.00,VWS V14.01,2013-02-14 17:20:00,
2013-02-14 09:30:00,54.5,42.6,30.23,North,0,6.0,13.0,64,0.00,,BKN250,0.00,388.00,VWS V14.01,2013-02-14 17:30:00,
2013-02-14 09:40:00,54.8,42.0,30.22,North,0,7.0,17.0,62,0.00,,BKN250,0.00,414.00,VWS V14.01,2013-02-14 17:40:00,
2013-02-14 09:50:00,55.6,42.8,30.22,North,0,6.0,15.0,62,0.00,,BKN250,0.00,439.00,VWS V14.01,2013-02-14 17:50:00,
2013-02-14 10:00:00,56.4,43.1,30.22,North,0,5.0,11.0,61,0.00,,BKN250,0.00,464.00,VWS V14.01,2013-02-14 18:00:00,
2013-02-14 10:10:00,56.5,42.8,30.22,North,0,7.0,17.0,60,0.00,,BKN250,0.00,486.00,VWS V14.01,2013-02-14 18:10:00,
2013-02-14 10:20:00,57.1,43.4,30.22,North,0,9.0,16.0,60,0.00,,BKN250,0.00,507.00,VWS V14.01,2013-02-14 18:20:00,
2013-02-14 10:30:00,58.3,44.0,30.22,North,0,5.0,14.0,59,0.00,,BKN250,0.00,528.00,VWS V14.01,2013-02-14 18:30:00,
2013-02-14 10:40:00,59.4,44.2,30.22,NNW,338,4.0,10.0,57,0.00,,BKN250,0.00,546.00,VWS V14.01,2013-02-14 18:40:00,
2013-02-14 10:50:00,60.0,44.3,30.21,NW,315,4.0,11.0,56,0.00,,BKN250,0.00,565.00,VWS V14.01,2013-02-14 18:50:00,
2013-02-14 11:00:00,60.6,44.4,30.21,NW,315,7.0,13.0,55,0.00,,BKN250,0.00,581.00,VWS V14.01,2013-02-14 19:00:00,
2013-02-14 11:10:00,61.4,44.1,30.20,NW,315,6.0,16.0,53,0.00,,BKN250,0.00,596.00,VWS V14.01,2013-02-14 19:10:00,
2013-02-14 11:20:00,62.2,44.4,30.20,NW,315,6.0,14.0,52,0.00,,BKN250,0.00,608.00,VWS V14.01,2013-02-14 19:20:00,
2013-02-14 11:30:00,63.1,44.2,30.20,NW,315,6.0,12.0,50,0.00,,BKN250,0.00,620.00,VWS V14.01,2013-02-14 19:30:00,
2013-02-14 11:40:00,63.6,44.6,30.19,NNW,338,7.0,14.0,50,0.00,,BKN250,0.00,630.00,VWS V14.01,2013-02-14 19:40:00,
2013-02-14 11:50:00,64.4,43.8,30.19,NNW,338,6.0,14.0,47,0.00,,BKN250,0.00,638.00,VWS V14.01,2013-02-14 19:50:00,
2013-02-14 12:00:00,65.4,43.5,30.18,NNW,338,6.0,13.0,45,0.00,,BKN250,0.00,644.00,VWS V14.01,2013-02-14 20:00:00,
2013-02-14 12:10:00,66.5,43.9,30.18,NNW,338,4.0,11.0,44,0.00,,BKN250,0.00,649.00,VWS V14.01,2013-02-14 20:10:00,
2013-02-14 12:20:00,67.3,44.7,30.17,North,0,6.0,13.0,44,0.00,,BKN250,0.00,653.00,VWS V14.01,2013-02-14 20:20:00,
2013-02-14 12:30:00,68.5,46.3,30.17,NNW,338,4.0,12.0,45,0.00,,BKN250,0.00,655.00,VWS V14.01,2013-02-14 20:30:00,
2013-02-14 12:40:00,69.4,46.6,30.16,NNW,338,4.0,12.0,44,0.00,,BKN250,0.00,653.00,VWS V14.01,2013-02-14 20:40:00,
2013-02-14 12:50:00,70.2,46.7,30.15,NW,315,2.0,7.0,43,0.00,,BKN250,0.00,651.00,VWS V14.01,2013-02-14 20:50:00,
2013-02-14 13:00:00,70.9,46.0,30.15,NNW,338,3.0,10.0,41,0.00,,BKN250,0.00,648.00,VWS V14.01,2013-02-14 21:00:00,
2013-02-14 13:10:00,71.3,46.4,30.15,NNW,338,4.0,10.0,41,0.00,,BKN250,0.00,644.00,VWS V14.01,2013-02-14 21:10:00,
2013-02-14 13:20:00,72.5,44.8,30.15,NNW,338,2.0,7.0,37,0.00,,BKN250,0.00,644.00,VWS V14.01,2013-02-14 21:20:00,
2013-02-14 13:30:00,73.4,44.8,30.15,North,0,1.0,5.0,36,0.00,,BKN250,0.00,632.00,VWS V14.01,2013-02-14 21:30:00,
2013-02-14 13:40:00,73.9,46.0,30.15,WSW,248,1.0,4.0,37,0.00,,BKN250,0.00,616.00,VWS V14.01,2013-02-14 21:40:00,
2013-02-14 13:50:00,74.1,47.6,30.15,South,180,3.0,6.0,39,0.00,,BKN250,0.00,602.00,VWS V14.01,2013-02-14 21:50:00,
2013-02-14 14:00:00,73.9,46.7,30.14,SE,135,2.0,7.0,38,0.00,,BKN250,0.00,587.00,VWS V14.01,2013-02-14 22:00:00,
2013-02-14 14:10:00,74.1,46.9,30.14,South,180,2.0,7.0,38,0.00,,BKN250,0.00,571.00,VWS V14.01,2013-02-14 22:10:00,
2013-02-14 14:20:00,74.6,46.6,30.14,SE,135,1.0,4.0,37,0.00,,BKN250,0.00,555.00,VWS V14.01,2013-02-14 22:20:00,
2013-02-14 14:30:00,74.8,46.1,30.14,ESE,112,2.0,7.0,36,0.00,,BKN250,0.00,537.00,VWS V14.01,2013-02-14 22:30:00,
2013-02-14 14:40:00,75.2,46.4,30.14,SSE,158,1.0,4.0,36,0.00,,BKN250,0.00,516.00,VWS V14.01,2013-02-14 22:40:00,
2013-02-14 14:50:00,74.9,48.3,30.14,SE,135,2.0,6.0,39,0.00,,BKN250,0.00,494.00,VWS V14.01,2013-02-14 22:50:00,
2013-02-14 15:00:00,74.7,48.1,30.14,ESE,112,3.0,7.0,39,0.00,,BKN250,0.00,472.00,VWS V14.01,2013-02-14 23:00:00,
2013-02-14 15:10:00,75.0,40.6,30.14,SW,225,3.0,10.0,29,0.00,,BKN250,0.00,450.00,VWS V14.01,2013-02-14 23:10:00,
2013-02-14 15:20:00,75.2,37.0,30.13,ENE,68,7.0,14.0,25,0.00,,BKN250,0.00,432.00,VWS V14.01,2013-02-14 23:20:00,
2013-02-14 15:30:00,75.5,37.2,30.13,ESE,112,4.0,10.0,25,0.00,,BKN250,0.00,405.00,VWS V14.01,2013-02-14 23:30:00,
2013-02-14 15:40:00,75.8,37.5,30.13,East,90,4.0,12.0,25,0.00,,BKN250,0.00,377.00,VWS V14.01,2013-02-14 23:40:00,
2013-02-14 15:50:00,75.7,46.1,30.13,ENE,68,3.0,9.0,35,0.00,,BKN250,0.00,348.00,VWS V14.01,2013-02-14 23:50:00,
2013-02-14 16:00:00,75.4,45.1,30.13,SE,135,1.0,6.0,34,0.00,,BKN250,0.00,319.00,VWS V14.01,2013-02-15 00:00:00,
2013-02-14 16:10:00,75.5,45.2,30.13,SE,135,2.0,7.0,34,0.00,,BKN250,0.00,289.00,VWS V14.01,2013-02-15 00:10:00,
2013-02-14 16:20:00,74.7,45.3,30.13,SSE,158,2.0,7.0,35,0.00,,BKN250,0.00,257.00,VWS V14.01,2013-02-15 00:20:00,
2013-02-14 16:30:00,74.4,45.0,30.13,ESE,112,4.0,11.0,35,0.00,,BKN250,0.00,227.00,VWS V14.01,2013-02-15 00:30:00,
2013-02-14 16:40:00,74.4,39.2,30.13,ESE,112,2.0,7.0,28,0.00,,BKN250,0.00,195.00,VWS V14.01,2013-02-15 00:40:00,
2013-02-14 16:50:00,74.6,37.5,30.13,NE,45,1.0,5.0,26,0.00,,BKN250,0.00,160.00,VWS V14.01,2013-02-15 00:50:00,
2013-02-14 17:00:00,74.6,34.4,30.13,East,90,2.0,8.0,23,0.00,,BKN250,0.00,135.00,VWS V14.01,2013-02-15 01:00:00,
2013-02-14 17:10:00,74.3,35.2,30.13,NE,45,2.0,7.0,24,0.00,,BKN250,0.00,109.00,VWS V14.01,2013-02-15 01:10:00,
2013-02-14 17:20:00,73.5,35.6,30.14,SSE,158,0.0,3.0,25,0.00,,BKN250,0.00,77.00,VWS V14.01,2013-02-15 01:20:00,
2013-02-14 17:30:00,71.8,46.2,30.14,SE,135,2.0,9.0,40,0.00,,BKN250,0.00,49.00,VWS V14.01,2013-02-15 01:30:00,
2013-02-14 17:40:00,68.9,45.5,30.14,ESE,112,4.0,11.0,43,0.00,,BKN250,0.00,20.00,VWS V14.01,2013-02-15 01:40:00,
2013-02-14 17:50:00,67.0,45.6,30.15,ESE,112,4.0,10.0,46,0.00,,BKN250,0.00,9.00,VWS V14.01,2013-02-15 01:50:00,
2013-02-14 18:00:00,65.9,45.7,30.15,ESE,112,4.0,7.0,48,0.00,,BKN250,0.00,2.00,VWS V14.01,2013-02-15 02:00:00,
2013-02-14 18:10:00,64.8,45.7,30.15,ESE,112,2.0,6.0,50,0.00,,BKN250,0.00,0.00,VWS V14.01,2013-02-15 02:10:00,
2013-02-14 18:20:00,64.0,44.5,30.16,East,90,0.0,3.0,49,0.00,,BKN250,0.00,0.00,VWS V14.01,2013-02-15 02:20:00,
2013-02-14 18:30:00,62.4,44.6,30.16,NNE,22,0.0,1.0,52,0.00,,BKN250,0.00,0.00,VWS V14.01,2013-02-15 02:30:00,
2013-02-14 18:40:00,60.9,43.7,30.16,NNE,22,1.0,4.0,53,0.00,,BKN250,0.00,0.00,VWS V14.01,2013-02-15 02:40:00,
2013-02-14 18:50:00,59.0,43.3,30.17,NNE,22,0.0,1.0,56,0.00,,BKN250,0.00,0.00,VWS V14.01,2013-02-15 02:50:00,
2013-02-14 19:00:00,58.5,41.9,30.17,NNE,22,1.0,4.0,54,0.00,,BKN250,0.00,0.00,VWS V14.01,2013-02-15 03:00:00,
2013-02-14 19:10:00,57.7,41.2,30.16,NNE,22,1.0,3.0,54,0.00,,BKN250,0.00,0.00,VWS V14.01,2013-02-15 03:10:00,
2013-02-14 19:20:00,57.3,41.3,30.17,NNE,22,2.0,4.0,55,0.00,,BKN250,0.00,0.00,VWS V14.01,2013-02-15 03:20:00,
2013-02-14 19:30:00,55.9,40.5,30.17,NNE,22,2.0,4.0,56,0.00,,BKN250,0.00,0.00,VWS V14.01,2013-02-15 03:30:00,
2013-02-14 19:40:00,55.1,40.6,30.17,NE,45,2.0,4.0,58,0.00,,BKN250,0.00,0.00,VWS V14.01,2013-02-15 03:40:00,
2013-02-14 19:50:00,54.8,41.6,30.17,NE,45,1.0,4.0,61,0.00,,BKN250,0.00,0.00,VWS V14.01,2013-02-15 03:50:00,
2013-02-14 20:00:00,54.2,40.2,30.18,NE,45,0.0,3.0,59,0.00,,BKN250,0.00,0.00,VWS V14.01,2013-02-15 04:00:00,
2013-02-14 20:10:00,53.6,40.9,30.18,NE,45,0.0,2.0,62,0.00,,BKN250,0.00,0.00,VWS V14.01,2013-02-15 04:10:00,
2013-02-14 20:20:00,53.1,39.6,30.18,NE,45,0.0,2.0,60,0.00,,BKN250,0.00,0.00,VWS V14.01,2013-02-15 04:20:00,
2013-02-14 20:30:00,53.0,40.3,30.18,NE,45,3.0,4.0,62,0.00,,BKN250,0.00,0.00,VWS V14.01,2013-02-15 04:30:00,
2013-02-14 20:40:00,52.5,40.3,30.18,NE,45,3.0,5.0,63,0.00,,BKN250,0.00,0.00,VWS V14.01,2013-02-15 04:40:00,
2013-02-14 20:50:00,53.0,40.8,30.18,NE,45,3.0,6.0,63,0.00,,BKN250,0.00,0.00,VWS V14.01,2013-02-15 04:50:00,
2013-02-14 21:00:00,53.0,40.8,30.18,NE,45,4.0,7.0,63,0.00,,BKN250,0.00,0.00,VWS V14.01,2013-02-15 05:00:00,
2013-02-14 21:10:00,52.1,40.7,30.18,NE,45,1.0,5.0,65,0.00,,BKN250,0.00,0.00,VWS V14.01,2013-02-15 05:10:00,
2013-02-14 21:20:00,50.4,40.2,30.18,NE,45,0.0,1.0,68,0.00,,BKN250,0.00,0.00,VWS V14.01,2013-02-15 05:20:00,
2013-02-14 21:30:00,49.5,40.1,30.18,NE,45,0.0,4.0,70,0.00,,BKN250,0.00,0.00,VWS V14.01,2013-02-15 05:30:00,
2013-02-14 21:40:00,49.5,40.1,30.18,North,0,0.0,4.0,70,0.00,,BKN250,0.00,0.00,VWS V14.01,2013-02-15 05:40:00,
2013-02-14 21:50:00,49.6,40.2,30.18,North,0,0.0,2.0,70,0.00,,BKN250,0.00,0.00,VWS V14.01,2013-02-15 05:50:00,
2013-02-14 22:00:00,50.9,40.7,30.18,North,0,1.0,3.0,68,0.00,,BKN250,0.00,0.00,VWS V14.01,2013-02-15 06:00:00,
2013-02-14 22:10:00,49.8,40.0,30.18,North,0,0.0,1.0,69,0.00,,BKN250,0.00,0.00,VWS V14.01,2013-02-15 06:10:00,
2013-02-14 22:20:00,50.8,40.2,30.18,North,0,2.0,5.0,67,0.00,,BKN250,0.00,0.00,VWS V14.01,2013-02-15 06:20:00,
2013-02-14 22:30:00,51.2,39.5,30.18,NE,45,1.0,3.0,64,0.00,,BKN250,0.00,0.00,VWS V14.01,2013-02-15 06:30:00,
2013-02-14 22:40:00,50.0,39.5,30.19,NE,45,0.0,0.0,67,0.00,,BKN250,0.00,0.00,VWS V14.01,2013-02-15 06:40:00,
2013-02-14 22:50:00,48.8,38.3,30.19,NE,45,0.0,1.0,67,0.00,,BKN250,0.00,0.00,VWS V14.01,2013-02-15 06:50:00,
2013-02-14 23:00:00,48.8,39.1,30.20,NE,45,0.0,2.0,69,0.00,,BKN250,0.00,0.00,VWS V14.01,2013-02-15 07:00:00,
2013-02-14 23:10:00,48.8,39.1,30.20,East,90,0.0,3.0,69,0.00,,BKN250,0.00,0.00,VWS V14.01,2013-02-15 07:10:00,
2013-02-14 23:20:00,48.6,39.3,30.20,East,90,1.0,5.0,70,0.00,,BKN250,0.00,0.00,VWS V14.01,2013-02-15 07:20:00,
2013-02-14 23:30:00,48.5,38.8,30.20,NE,45,0.0,4.0,69,0.00,,BKN250,0.00,0.00,VWS V14.01,2013-02-15 07:30:00,
2013-02-14 23:40:00,48.3,39.0,30.20,NE,45,0.0,2.0,70,0.00,,BKN250,0.00,0.00,VWS V14.01,2013-02-15 07:40:00,
2013-02-14 23:50:00,48.5,38.4,30.20,NE,45,0.0,0.0,68,0.00,,BKN250,0.00,0.00,VWS V14.01,2013-02-15 07:50:00,